sensor_id;sensor_type;location;lat;lon;timestamp;P1;durP1;ratioP1;P2;durP2;ratioP2
18228;SDS011;9239;50.932;3.142;2023-07-20T00:00:17;11.95;;;7.43;;
18228;SDS011;9239;50.932;3.142;2023-07-20T00:02:44;11.20;;;7.43;;
18228;SDS011;9239;50.932;3.142;2023-07-20T00:05:11;12.60;;;7.70;;
18228;SDS011;9239;50.932;3.142;2023-07-20T00:07:38;13.00;;;7.82;;
18228;SDS011;9239;50.932;3.142;2023-07-20T00:10:05;13.82;;;8.05;;
18228;SDS011;9239;50.932;3.142;2023-07-20T00:12:33;10.98;;;7.65;;
18228;SDS011;9239;50.932;3.142;2023-07-20T00:15:00;11.35;;;7.05;;
18228;SDS011;9239;50.932;3.142;2023-07-20T00:17:28;11.50;;;7.20;;
18228;SDS011;9239;50.932;3.142;2023-07-20T00:19:55;11.00;;;8.18;;
18228;SDS011;9239;50.932;3.142;2023-07-20T00:22:22;14.05;;;7.72;;
18228;SDS011;9239;50.932;3.142;2023-07-20T00:24:49;12.95;;;8.82;;
18228;SDS011;9239;50.932;3.142;2023-07-20T00:27:16;13.95;;;8.02;;
18228;SDS011;9239;50.932;3.142;2023-07-20T00:29:43;13.05;;;8.23;;
18228;SDS011;9239;50.932;3.142;2023-07-20T00:32:09;16.13;;;8.00;;
18228;SDS011;9239;50.932;3.142;2023-07-20T00:34:38;13.93;;;8.20;;
18228;SDS011;9239;50.932;3.142;2023-07-20T00:37:05;15.07;;;9.00;;
18228;SDS011;9239;50.932;3.142;2023-07-20T00:39:32;11.35;;;7.47;;
18228;SDS011;9239;50.932;3.142;2023-07-20T00:41:59;15.07;;;8.38;;
18228;SDS011;9239;50.932;3.142;2023-07-20T00:44:26;14.70;;;7.93;;
18228;SDS011;9239;50.932;3.142;2023-07-20T00:46:53;11.85;;;8.48;;
18228;SDS011;9239;50.932;3.142;2023-07-20T00:49:20;11.73;;;7.80;;
18228;SDS011;9239;50.932;3.142;2023-07-20T00:51:49;8.63;;;7.20;;
18228;SDS011;9239;50.932;3.142;2023-07-20T00:54:16;12.63;;;7.55;;
18228;SDS011;9239;50.932;3.142;2023-07-20T00:56:44;15.57;;;8.25;;
18228;SDS011;9239;50.932;3.142;2023-07-20T00:59:11;12.75;;;8.43;;
18228;SDS011;9239;50.932;3.142;2023-07-20T01:01:39;10.75;;;7.85;;
18228;SDS011;9239;50.932;3.142;2023-07-20T01:04:06;12.35;;;8.00;;
18228;SDS011;9239;50.932;3.142;2023-07-20T01:06:36;12.43;;;8.40;;
18228;SDS011;9239;50.932;3.142;2023-07-20T01:09:13;10.15;;;7.35;;
18228;SDS011;9239;50.932;3.142;2023-07-20T01:11:48;12.10;;;8.55;;
18228;SDS011;9239;50.932;3.142;2023-07-20T01:14:20;14.27;;;8.73;;
18228;SDS011;9239;50.932;3.142;2023-07-20T01:16:49;10.52;;;7.45;;
18228;SDS011;9239;50.932;3.142;2023-07-20T01:19:17;10.98;;;7.20;;
18228;SDS011;9239;50.932;3.142;2023-07-20T01:21:45;10.23;;;8.02;;
18228;SDS011;9239;50.932;3.142;2023-07-20T01:24:39;11.85;;;8.23;;
18228;SDS011;9239;50.932;3.142;2023-07-20T01:30:43;11.05;;;8.15;;
18228;SDS011;9239;50.932;3.142;2023-07-20T01:33:18;14.50;;;8.48;;
18228;SDS011;9239;50.932;3.142;2023-07-20T01:35:48;14.68;;;8.60;;
18228;SDS011;9239;50.932;3.142;2023-07-20T01:38:19;13.88;;;7.47;;
18228;SDS011;9239;50.932;3.142;2023-07-20T01:40:47;9.77;;;7.63;;
18228;SDS011;9239;50.932;3.142;2023-07-20T01:43:15;10.23;;;8.27;;
18228;SDS011;9239;50.932;3.142;2023-07-20T01:45:42;14.32;;;8.52;;
18228;SDS011;9239;50.932;3.142;2023-07-20T01:48:09;12.38;;;8.65;;
18228;SDS011;9239;50.932;3.142;2023-07-20T01:50:38;13.23;;;8.45;;
18228;SDS011;9239;50.932;3.142;2023-07-20T01:53:05;9.07;;;7.90;;
18228;SDS011;9239;50.932;3.142;2023-07-20T01:55:32;11.18;;;7.93;;
18228;SDS011;9239;50.932;3.142;2023-07-20T01:57:59;9.52;;;7.68;;
18228;SDS011;9239;50.932;3.142;2023-07-20T02:00:27;13.02;;;8.43;;
18228;SDS011;9239;50.932;3.142;2023-07-20T02:02:54;10.18;;;8.45;;
18228;SDS011;9239;50.932;3.142;2023-07-20T02:05:21;13.55;;;8.40;;
18228;SDS011;9239;50.932;3.142;2023-07-20T02:07:49;13.43;;;7.85;;
18228;SDS011;9239;50.932;3.142;2023-07-20T02:10:16;9.57;;;8.55;;
18228;SDS011;9239;50.932;3.142;2023-07-20T02:12:43;9.63;;;8.55;;
18228;SDS011;9239;50.932;3.142;2023-07-20T02:15:10;11.13;;;7.65;;
18228;SDS011;9239;50.932;3.142;2023-07-20T02:17:38;8.73;;;7.50;;
18228;SDS011;9239;50.932;3.142;2023-07-20T02:20:06;8.65;;;7.90;;
18228;SDS011;9239;50.932;3.142;2023-07-20T02:22:35;9.73;;;8.30;;
18228;SDS011;9239;50.932;3.142;2023-07-20T02:25:04;9.40;;;8.23;;
18228;SDS011;9239;50.932;3.142;2023-07-20T02:27:32;9.32;;;7.65;;
18228;SDS011;9239;50.932;3.142;2023-07-20T02:29:59;10.18;;;8.15;;
18228;SDS011;9239;50.932;3.142;2023-07-20T02:32:26;11.80;;;7.97;;
18228;SDS011;9239;50.932;3.142;2023-07-20T02:34:53;8.98;;;7.47;;
18228;SDS011;9239;50.932;3.142;2023-07-20T02:37:20;14.65;;;8.40;;
18228;SDS011;9239;50.932;3.142;2023-07-20T02:39:47;7.80;;;6.88;;
18228;SDS011;9239;50.932;3.142;2023-07-20T02:42:16;10.13;;;7.85;;
18228;SDS011;9239;50.932;3.142;2023-07-20T02:44:42;10.07;;;7.78;;
18228;SDS011;9239;50.932;3.142;2023-07-20T02:47:09;11.02;;;7.53;;
18228;SDS011;9239;50.932;3.142;2023-07-20T02:49:36;11.43;;;8.15;;
18228;SDS011;9239;50.932;3.142;2023-07-20T02:52:04;9.52;;;7.55;;
18228;SDS011;9239;50.932;3.142;2023-07-20T02:54:31;12.18;;;8.30;;
18228;SDS011;9239;50.932;3.142;2023-07-20T02:56:58;11.05;;;7.68;;
18228;SDS011;9239;50.932;3.142;2023-07-20T02:59:27;10.90;;;7.57;;
18228;SDS011;9239;50.932;3.142;2023-07-20T03:01:54;13.80;;;8.43;;
18228;SDS011;9239;50.932;3.142;2023-07-20T03:04:22;7.95;;;7.13;;
18228;SDS011;9239;50.932;3.142;2023-07-20T03:06:51;7.45;;;6.85;;
18228;SDS011;9239;50.932;3.142;2023-07-20T03:09:18;10.10;;;7.97;;
18228;SDS011;9239;50.932;3.142;2023-07-20T03:11:45;8.60;;;7.43;;
18228;SDS011;9239;50.932;3.142;2023-07-20T03:14:12;10.13;;;8.10;;
18228;SDS011;9239;50.932;3.142;2023-07-20T03:16:41;8.90;;;8.02;;
18228;SDS011;9239;50.932;3.142;2023-07-20T03:19:07;9.43;;;7.78;;
18228;SDS011;9239;50.932;3.142;2023-07-20T03:21:35;8.55;;;7.80;;
18228;SDS011;9239;50.932;3.142;2023-07-20T03:24:05;8.32;;;7.53;;
18228;SDS011;9239;50.932;3.142;2023-07-20T03:26:33;8.13;;;7.32;;
18228;SDS011;9239;50.932;3.142;2023-07-20T03:29:00;8.45;;;7.55;;
18228;SDS011;9239;50.932;3.142;2023-07-20T03:31:27;9.07;;;7.10;;
18228;SDS011;9239;50.932;3.142;2023-07-20T03:33:55;7.75;;;7.05;;
18228;SDS011;9239;50.932;3.142;2023-07-20T03:36:22;10.38;;;7.38;;
18228;SDS011;9239;50.932;3.142;2023-07-20T03:38:49;8.90;;;7.60;;
18228;SDS011;9239;50.932;3.142;2023-07-20T03:41:16;8.45;;;7.57;;
18228;SDS011;9239;50.932;3.142;2023-07-20T03:43:45;9.85;;;8.50;;
18228;SDS011;9239;50.932;3.142;2023-07-20T03:46:12;8.48;;;7.68;;
18228;SDS011;9239;50.932;3.142;2023-07-20T03:48:39;8.30;;;7.50;;
18228;SDS011;9239;50.932;3.142;2023-07-20T03:51:07;7.65;;;6.85;;
18228;SDS011;9239;50.932;3.142;2023-07-20T03:53:34;9.63;;;7.47;;
18228;SDS011;9239;50.932;3.142;2023-07-20T03:56:01;8.15;;;7.35;;
18228;SDS011;9239;50.932;3.142;2023-07-20T03:58:28;9.20;;;8.15;;
18228;SDS011;9239;50.932;3.142;2023-07-20T04:00:56;10.35;;;9.15;;
18228;SDS011;9239;50.932;3.142;2023-07-20T04:03:24;8.38;;;7.60;;
18228;SDS011;9239;50.932;3.142;2023-07-20T04:05:52;9.15;;;8.32;;
18228;SDS011;9239;50.932;3.142;2023-07-20T04:08:22;9.23;;;7.30;;
18228;SDS011;9239;50.932;3.142;2023-07-20T04:10:49;9.60;;;8.57;;
18228;SDS011;9239;50.932;3.142;2023-07-20T04:13:16;9.38;;;7.55;;
18228;SDS011;9239;50.932;3.142;2023-07-20T04:15:44;8.75;;;7.85;;
18228;SDS011;9239;50.932;3.142;2023-07-20T04:18:11;8.95;;;8.05;;
18228;SDS011;9239;50.932;3.142;2023-07-20T04:20:38;8.38;;;7.55;;
18228;SDS011;9239;50.932;3.142;2023-07-20T04:23:05;8.65;;;7.85;;
18228;SDS011;9239;50.932;3.142;2023-07-20T04:25:33;8.00;;;7.30;;
18228;SDS011;9239;50.932;3.142;2023-07-20T04:28:04;7.78;;;6.97;;
18228;SDS011;9239;50.932;3.142;2023-07-20T04:30:33;7.82;;;7.20;;
18228;SDS011;9239;50.932;3.142;2023-07-20T04:33:01;7.72;;;6.90;;
18228;SDS011;9239;50.932;3.142;2023-07-20T04:35:50;8.68;;;7.80;;
18228;SDS011;9239;50.932;3.142;2023-07-20T04:38:18;10.80;;;7.82;;
18228;SDS011;9239;50.932;3.142;2023-07-20T04:40:48;9.57;;;8.77;;
18228;SDS011;9239;50.932;3.142;2023-07-20T04:43:15;9.25;;;8.35;;
18228;SDS011;9239;50.932;3.142;2023-07-20T04:45:43;8.82;;;7.90;;
18228;SDS011;9239;50.932;3.142;2023-07-20T04:48:11;9.23;;;8.13;;
18228;SDS011;9239;50.932;3.142;2023-07-20T04:50:39;8.40;;;7.70;;
18228;SDS011;9239;50.932;3.142;2023-07-20T04:53:08;8.57;;;7.72;;
18228;SDS011;9239;50.932;3.142;2023-07-20T04:55:35;11.07;;;8.18;;
18228;SDS011;9239;50.932;3.142;2023-07-20T04:58:03;9.82;;;7.90;;
18228;SDS011;9239;50.932;3.142;2023-07-20T05:00:31;8.70;;;7.85;;
18228;SDS011;9239;50.932;3.142;2023-07-20T05:02:59;8.70;;;7.75;;
18228;SDS011;9239;50.932;3.142;2023-07-20T05:05:26;7.50;;;6.82;;
18228;SDS011;9239;50.932;3.142;2023-07-20T05:07:53;8.85;;;8.05;;
18228;SDS011;9239;50.932;3.142;2023-07-20T05:10:20;9.13;;;8.35;;
18228;SDS011;9239;50.932;3.142;2023-07-20T05:12:47;8.80;;;7.90;;
18228;SDS011;9239;50.932;3.142;2023-07-20T05:15:15;10.80;;;8.65;;
18228;SDS011;9239;50.932;3.142;2023-07-20T05:17:42;9.02;;;8.15;;
18228;SDS011;9239;50.932;3.142;2023-07-20T05:20:09;9.55;;;8.65;;
18228;SDS011;9239;50.932;3.142;2023-07-20T05:22:37;12.20;;;8.43;;
18228;SDS011;9239;50.932;3.142;2023-07-20T05:25:05;9.35;;;8.55;;
18228;SDS011;9239;50.932;3.142;2023-07-20T05:27:34;8.77;;;8.07;;
18228;SDS011;9239;50.932;3.142;2023-07-20T05:30:02;8.77;;;8.07;;
18228;SDS011;9239;50.932;3.142;2023-07-20T05:32:32;9.60;;;8.70;;
18228;SDS011;9239;50.932;3.142;2023-07-20T05:34:59;10.48;;;8.07;;
18228;SDS011;9239;50.932;3.142;2023-07-20T05:37:26;8.27;;;7.40;;
18228;SDS011;9239;50.932;3.142;2023-07-20T05:39:53;7.13;;;6.63;;
18228;SDS011;9239;50.932;3.142;2023-07-20T05:42:19;8.95;;;8.20;;
18228;SDS011;9239;50.932;3.142;2023-07-20T05:44:46;9.20;;;8.30;;
18228;SDS011;9239;50.932;3.142;2023-07-20T05:47:15;10.60;;;8.52;;
18228;SDS011;9239;50.932;3.142;2023-07-20T05:49:43;8.18;;;7.40;;
18228;SDS011;9239;50.932;3.142;2023-07-20T05:52:10;10.13;;;9.13;;
18228;SDS011;9239;50.932;3.142;2023-07-20T05:54:37;9.10;;;8.30;;
18228;SDS011;9239;50.932;3.142;2023-07-20T05:57:04;7.43;;;6.78;;
18228;SDS011;9239;50.932;3.142;2023-07-20T05:59:31;8.50;;;7.70;;
18228;SDS011;9239;50.932;3.142;2023-07-20T06:01:58;8.50;;;7.70;;
18228;SDS011;9239;50.932;3.142;2023-07-20T06:04:25;7.97;;;7.25;;
18228;SDS011;9239;50.932;3.142;2023-07-20T06:06:53;9.55;;;8.60;;
18228;SDS011;9239;50.932;3.142;2023-07-20T06:09:20;8.57;;;7.82;;
18228;SDS011;9239;50.932;3.142;2023-07-20T06:11:47;10.10;;;6.90;;
18228;SDS011;9239;50.932;3.142;2023-07-20T06:14:14;7.65;;;6.97;;
18228;SDS011;9239;50.932;3.142;2023-07-20T06:16:41;6.90;;;6.30;;
18228;SDS011;9239;50.932;3.142;2023-07-20T06:19:08;8.43;;;6.30;;
18228;SDS011;9239;50.932;3.142;2023-07-20T06:21:37;5.78;;;5.28;;
18228;SDS011;9239;50.932;3.142;2023-07-20T06:24:05;6.85;;;6.18;;
18228;SDS011;9239;50.932;3.142;2023-07-20T06:26:32;6.07;;;5.43;;
18228;SDS011;9239;50.932;3.142;2023-07-20T06:29:03;5.80;;;4.93;;
18228;SDS011;9239;50.932;3.142;2023-07-20T06:31:31;4.28;;;3.97;;
18228;SDS011;9239;50.932;3.142;2023-07-20T06:33:58;5.43;;;4.90;;
18228;SDS011;9239;50.932;3.142;2023-07-20T06:36:25;2.90;;;2.70;;
18228;SDS011;9239;50.932;3.142;2023-07-20T06:38:52;3.45;;;3.15;;
18228;SDS011;9239;50.932;3.142;2023-07-20T06:41:20;2.90;;;2.70;;
18228;SDS011;9239;50.932;3.142;2023-07-20T06:43:47;4.38;;;3.85;;
18228;SDS011;9239;50.932;3.142;2023-07-20T06:46:14;4.20;;;3.70;;
18228;SDS011;9239;50.932;3.142;2023-07-20T06:48:41;3.95;;;3.55;;
18228;SDS011;9239;50.932;3.142;2023-07-20T06:51:08;4.10;;;3.70;;
18228;SDS011;9239;50.932;3.142;2023-07-20T06:53:35;3.83;;;3.53;;
18228;SDS011;9239;50.932;3.142;2023-07-20T06:56:02;3.38;;;3.08;;
18228;SDS011;9239;50.932;3.142;2023-07-20T06:58:31;3.90;;;3.60;;
18228;SDS011;9239;50.932;3.142;2023-07-20T07:00:58;4.10;;;3.50;;
18228;SDS011;9239;50.932;3.142;2023-07-20T07:03:25;4.70;;;3.42;;
18228;SDS011;9239;50.932;3.142;2023-07-20T07:05:54;5.03;;;3.65;;
18228;SDS011;9239;50.932;3.142;2023-07-20T07:08:22;3.45;;;3.15;;
18228;SDS011;9239;50.932;3.142;2023-07-20T07:10:49;6.18;;;5.53;;
18228;SDS011;9239;50.932;3.142;2023-07-20T07:13:16;4.30;;;3.22;;
18228;SDS011;9239;50.932;3.142;2023-07-20T07:15:45;3.25;;;2.85;;
18228;SDS011;9239;50.932;3.142;2023-07-20T07:18:12;4.32;;;3.92;;
18228;SDS011;9239;50.932;3.142;2023-07-20T07:20:38;2.80;;;2.60;;
18228;SDS011;9239;50.932;3.142;2023-07-20T07:23:05;2.38;;;2.17;;
18228;SDS011;9239;50.932;3.142;2023-07-20T07:25:32;5.13;;;2.70;;
18228;SDS011;9239;50.932;3.142;2023-07-20T07:28:00;3.75;;;3.30;;
18228;SDS011;9239;50.932;3.142;2023-07-20T07:30:27;3.28;;;2.97;;
18228;SDS011;9239;50.932;3.142;2023-07-20T07:32:55;5.13;;;3.20;;
18228;SDS011;9239;50.932;3.142;2023-07-20T07:35:22;3.90;;;3.50;;
18228;SDS011;9239;50.932;3.142;2023-07-20T07:37:50;3.55;;;3.25;;
18228;SDS011;9239;50.932;3.142;2023-07-20T07:40:17;4.75;;;4.00;;
18228;SDS011;9239;50.932;3.142;2023-07-20T07:42:44;7.30;;;4.22;;
18228;SDS011;9239;50.932;3.142;2023-07-20T07:45:10;3.70;;;3.40;;
18228;SDS011;9239;50.932;3.142;2023-07-20T07:47:39;4.80;;;4.03;;
18228;SDS011;9239;50.932;3.142;2023-07-20T07:50:07;5.28;;;3.83;;
18228;SDS011;9239;50.932;3.142;2023-07-20T07:52:35;4.78;;;4.22;;
18228;SDS011;9239;50.932;3.142;2023-07-20T07:55:02;4.97;;;3.90;;
18228;SDS011;9239;50.932;3.142;2023-07-20T07:57:30;4.95;;;4.43;;
18228;SDS011;9239;50.932;3.142;2023-07-20T07:59:56;5.35;;;4.10;;
18228;SDS011;9239;50.932;3.142;2023-07-20T08:02:23;6.03;;;4.43;;
18228;SDS011;9239;50.932;3.142;2023-07-20T08:04:50;4.45;;;4.07;;
18228;SDS011;9239;50.932;3.142;2023-07-20T08:07:19;4.15;;;3.80;;
18228;SDS011;9239;50.932;3.142;2023-07-20T08:09:46;4.60;;;4.20;;
18228;SDS011;9239;50.932;3.142;2023-07-20T08:12:13;4.35;;;3.67;;
18228;SDS011;9239;50.932;3.142;2023-07-20T08:14:42;4.47;;;4.18;;
18228;SDS011;9239;50.932;3.142;2023-07-20T08:17:09;4.20;;;3.90;;
18228;SDS011;9239;50.932;3.142;2023-07-20T08:19:37;3.80;;;3.50;;
18228;SDS011;9239;50.932;3.142;2023-07-20T08:22:07;4.05;;;3.30;;
18228;SDS011;9239;50.932;3.142;2023-07-20T08:24:38;4.68;;;4.28;;
18228;SDS011;9239;50.932;3.142;2023-07-20T08:27:06;3.95;;;3.55;;
18228;SDS011;9239;50.932;3.142;2023-07-20T08:29:33;5.43;;;4.30;;
18228;SDS011;9239;50.932;3.142;2023-07-20T08:32:00;4.20;;;3.90;;
18228;SDS011;9239;50.932;3.142;2023-07-20T08:34:27;4.40;;;4.10;;
18228;SDS011;9239;50.932;3.142;2023-07-20T08:36:54;4.13;;;3.83;;
18228;SDS011;9239;50.932;3.142;2023-07-20T08:39:22;3.22;;;3.03;;
18228;SDS011;9239;50.932;3.142;2023-07-20T08:41:50;5.82;;;3.40;;
18228;SDS011;9239;50.932;3.142;2023-07-20T08:44:17;4.72;;;4.18;;
18228;SDS011;9239;50.932;3.142;2023-07-20T08:46:45;4.40;;;3.80;;
18228;SDS011;9239;50.932;3.142;2023-07-20T08:49:15;4.50;;;4.18;;
18228;SDS011;9239;50.932;3.142;2023-07-20T08:51:43;4.90;;;4.50;;
18228;SDS011;9239;50.932;3.142;2023-07-20T08:54:12;5.32;;;4.82;;
18228;SDS011;9239;50.932;3.142;2023-07-20T08:56:40;4.50;;;4.10;;
18228;SDS011;9239;50.932;3.142;2023-07-20T08:59:10;4.97;;;3.72;;
18228;SDS011;9239;50.932;3.142;2023-07-20T09:01:39;7.47;;;6.88;;
18228;SDS011;9239;50.932;3.142;2023-07-20T09:04:06;6.95;;;6.25;;
18228;SDS011;9239;50.932;3.142;2023-07-20T09:06:34;8.20;;;7.13;;
18228;SDS011;9239;50.932;3.142;2023-07-20T09:09:01;8.90;;;8.20;;
18228;SDS011;9239;50.932;3.142;2023-07-20T09:11:29;7.63;;;7.03;;
18228;SDS011;9239;50.932;3.142;2023-07-20T09:14:02;7.43;;;6.80;;
18228;SDS011;9239;50.932;3.142;2023-07-20T09:16:31;6.75;;;6.05;;
18228;SDS011;9239;50.932;3.142;2023-07-20T09:18:58;6.53;;;5.93;;
18228;SDS011;9239;50.932;3.142;2023-07-20T09:21:28;8.27;;;7.57;;
18228;SDS011;9239;50.932;3.142;2023-07-20T09:23:56;6.63;;;6.13;;
18228;SDS011;9239;50.932;3.142;2023-07-20T09:26:23;6.30;;;5.85;;
18228;SDS011;9239;50.932;3.142;2023-07-20T09:28:51;6.10;;;5.32;;
18228;SDS011;9239;50.932;3.142;2023-07-20T09:31:19;5.45;;;5.05;;
18228;SDS011;9239;50.932;3.142;2023-07-20T09:33:49;6.38;;;5.78;;
18228;SDS011;9239;50.932;3.142;2023-07-20T09:36:18;4.15;;;3.50;;
18228;SDS011;9239;50.932;3.142;2023-07-20T09:38:46;4.40;;;4.05;;
18228;SDS011;9239;50.932;3.142;2023-07-20T09:41:13;3.58;;;3.38;;
18228;SDS011;9239;50.932;3.142;2023-07-20T09:43:40;4.47;;;4.07;;
18228;SDS011;9239;50.932;3.142;2023-07-20T09:46:07;3.78;;;3.50;;
18228;SDS011;9239;50.932;3.142;2023-07-20T09:48:34;3.92;;;3.47;;
18228;SDS011;9239;50.932;3.142;2023-07-20T09:51:02;4.07;;;3.67;;
18228;SDS011;9239;50.932;3.142;2023-07-20T09:53:30;4.57;;;3.35;;
18228;SDS011;9239;50.932;3.142;2023-07-20T09:55:59;3.67;;;3.25;;
18228;SDS011;9239;50.932;3.142;2023-07-20T09:58:26;4.72;;;3.80;;
18228;SDS011;9239;50.932;3.142;2023-07-20T10:00:54;5.35;;;4.93;;
18228;SDS011;9239;50.932;3.142;2023-07-20T10:03:25;5.75;;;5.13;;
18228;SDS011;9239;50.932;3.142;2023-07-20T10:05:56;6.38;;;5.88;;
18228;SDS011;9239;50.932;3.142;2023-07-20T10:08:27;5.43;;;4.82;;
18228;SDS011;9239;50.932;3.142;2023-07-20T10:10:56;5.88;;;5.35;;
18228;SDS011;9239;50.932;3.142;2023-07-20T10:13:25;5.60;;;5.10;;
18228;SDS011;9239;50.932;3.142;2023-07-20T10:15:53;5.45;;;5.05;;
18228;SDS011;9239;50.932;3.142;2023-07-20T10:18:25;5.82;;;5.32;;
18228;SDS011;9239;50.932;3.142;2023-07-20T10:20:55;5.45;;;4.95;;
18228;SDS011;9239;50.932;3.142;2023-07-20T10:23:27;5.50;;;5.13;;
18228;SDS011;9239;50.932;3.142;2023-07-20T10:25:56;6.10;;;5.57;;
18228;SDS011;9239;50.932;3.142;2023-07-20T10:28:23;6.63;;;6.07;;
18228;SDS011;9239;50.932;3.142;2023-07-20T10:30:51;6.82;;;6.20;;
18228;SDS011;9239;50.932;3.142;2023-07-20T10:33:18;6.30;;;5.80;;
18228;SDS011;9239;50.932;3.142;2023-07-20T10:35:52;6.47;;;5.97;;
18228;SDS011;9239;50.932;3.142;2023-07-20T10:38:21;7.05;;;6.55;;
18228;SDS011;9239;50.932;3.142;2023-07-20T10:41:16;8.73;;;7.93;;
18228;SDS011;9239;50.932;3.142;2023-07-20T10:43:44;8.13;;;7.43;;
18228;SDS011;9239;50.932;3.142;2023-07-20T10:46:12;8.02;;;7.43;;
18228;SDS011;9239;50.932;3.142;2023-07-20T10:51:26;9.10;;;8.38;;
18228;SDS011;9239;50.932;3.142;2023-07-20T10:53:56;9.23;;;8.07;;
18228;SDS011;9239;50.932;3.142;2023-07-20T10:56:25;9.60;;;8.65;;
18228;SDS011;9239;50.932;3.142;2023-07-20T10:58:57;8.38;;;7.65;;
18228;SDS011;9239;50.932;3.142;2023-07-20T11:01:27;8.38;;;7.70;;
18228;SDS011;9239;50.932;3.142;2023-07-20T11:03:57;7.82;;;7.13;;
18228;SDS011;9239;50.932;3.142;2023-07-20T11:06:31;7.65;;;7.00;;
18228;SDS011;9239;50.932;3.142;2023-07-20T11:09:11;7.82;;;7.10;;
18228;SDS011;9239;50.932;3.142;2023-07-20T11:11:40;7.00;;;6.40;;
18228;SDS011;9239;50.932;3.142;2023-07-20T11:14:08;7.93;;;7.30;;
18228;SDS011;9239;50.932;3.142;2023-07-20T11:16:39;7.47;;;6.88;;
18228;SDS011;9239;50.932;3.142;2023-07-20T11:19:13;8.30;;;7.60;;
18228;SDS011;9239;50.932;3.142;2023-07-20T11:21:42;7.90;;;7.25;;
18228;SDS011;9239;50.932;3.142;2023-07-20T11:24:11;8.73;;;7.93;;
18228;SDS011;9239;50.932;3.142;2023-07-20T11:26:42;6.82;;;6.30;;
18228;SDS011;9239;50.932;3.142;2023-07-20T11:29:09;8.25;;;7.55;;
18228;SDS011;9239;50.932;3.142;2023-07-20T11:31:37;9.07;;;8.18;;
18228;SDS011;9239;50.932;3.142;2023-07-20T11:34:04;8.00;;;7.30;;
18228;SDS011;9239;50.932;3.142;2023-07-20T11:36:31;7.93;;;7.32;;
18228;SDS011;9239;50.932;3.142;2023-07-20T11:38:59;6.60;;;6.10;;
18228;SDS011;9239;50.932;3.142;2023-07-20T11:41:27;6.90;;;6.35;;
18228;SDS011;9239;50.932;3.142;2023-07-20T11:43:54;6.53;;;5.88;;
18228;SDS011;9239;50.932;3.142;2023-07-20T11:46:22;7.25;;;6.75;;
18228;SDS011;9239;50.932;3.142;2023-07-20T11:48:49;7.85;;;7.20;;
18228;SDS011;9239;50.932;3.142;2023-07-20T11:51:21;8.43;;;7.63;;
18228;SDS011;9239;50.932;3.142;2023-07-20T11:53:49;7.43;;;6.82;;
18228;SDS011;9239;50.932;3.142;2023-07-20T11:56:16;8.35;;;7.63;;
18228;SDS011;9239;50.932;3.142;2023-07-20T11:58:44;6.35;;;5.93;;
18228;SDS011;9239;50.932;3.142;2023-07-20T12:01:12;7.18;;;6.57;;
18228;SDS011;9239;50.932;3.142;2023-07-20T12:03:39;7.25;;;6.55;;
18228;SDS011;9239;50.932;3.142;2023-07-20T12:06:06;7.40;;;6.75;;
18228;SDS011;9239;50.932;3.142;2023-07-20T12:08:34;7.25;;;6.65;;
18228;SDS011;9239;50.932;3.142;2023-07-20T12:11:01;6.53;;;5.93;;
18228;SDS011;9239;50.932;3.142;2023-07-20T12:13:35;6.68;;;5.88;;
18228;SDS011;9239;50.932;3.142;2023-07-20T12:16:11;5.97;;;5.47;;
18228;SDS011;9239;50.932;3.142;2023-07-20T12:18:39;6.07;;;5.57;;
18228;SDS011;9239;50.932;3.142;2023-07-20T12:21:06;7.78;;;7.05;;
18228;SDS011;9239;50.932;3.142;2023-07-20T12:23:37;7.47;;;6.85;;
18228;SDS011;9239;50.932;3.142;2023-07-20T12:26:07;7.22;;;6.43;;
18228;SDS011;9239;50.932;3.142;2023-07-20T12:28:36;6.80;;;6.15;;
18228;SDS011;9239;50.932;3.142;2023-07-20T12:31:06;5.60;;;5.10;;
18228;SDS011;9239;50.932;3.142;2023-07-20T12:33:34;6.35;;;5.78;;
18228;SDS011;9239;50.932;3.142;2023-07-20T12:36:01;6.47;;;5.97;;
18228;SDS011;9239;50.932;3.142;2023-07-20T12:38:28;7.60;;;6.90;;
18228;SDS011;9239;50.932;3.142;2023-07-20T12:40:56;9.40;;;7.78;;
18228;SDS011;9239;50.932;3.142;2023-07-20T12:43:25;9.43;;;8.43;;
18228;SDS011;9239;50.932;3.142;2023-07-20T12:45:52;12.60;;;9.80;;
18228;SDS011;9239;50.932;3.142;2023-07-20T12:48:19;13.38;;;11.85;;
18228;SDS011;9239;50.932;3.142;2023-07-20T12:50:48;12.73;;;11.52;;
18228;SDS011;9239;50.932;3.142;2023-07-20T12:53:14;15.93;;;14.43;;
18228;SDS011;9239;50.932;3.142;2023-07-20T12:55:41;16.55;;;14.57;;
18228;SDS011;9239;50.932;3.142;2023-07-20T12:58:10;16.77;;;15.27;;
18228;SDS011;9239;50.932;3.142;2023-07-20T13:00:38;17.98;;;16.13;;
18228;SDS011;9239;50.932;3.142;2023-07-20T13:03:05;19.25;;;17.40;;
18228;SDS011;9239;50.932;3.142;2023-07-20T13:05:33;20.13;;;17.90;;
18228;SDS011;9239;50.932;3.142;2023-07-20T13:08:02;21.13;;;19.00;;
18228;SDS011;9239;50.932;3.142;2023-07-20T13:10:30;19.75;;;18.05;;
18228;SDS011;9239;50.932;3.142;2023-07-20T13:12:57;20.67;;;18.88;;
18228;SDS011;9239;50.932;3.142;2023-07-20T13:15:29;20.02;;;18.25;;
18228;SDS011;9239;50.932;3.142;2023-07-20T13:17:57;23.02;;;20.90;;
18228;SDS011;9239;50.932;3.142;2023-07-20T13:20:25;22.85;;;20.85;;
18228;SDS011;9239;50.932;3.142;2023-07-20T13:22:53;25.27;;;22.83;;
18228;SDS011;9239;50.932;3.142;2023-07-20T13:25:21;21.92;;;20.02;;
18228;SDS011;9239;50.932;3.142;2023-07-20T13:27:48;21.27;;;19.30;;
18228;SDS011;9239;50.932;3.142;2023-07-20T13:30:15;22.60;;;20.50;;
18228;SDS011;9239;50.932;3.142;2023-07-20T13:32:42;21.23;;;19.40;;
18228;SDS011;9239;50.932;3.142;2023-07-20T13:35:09;18.98;;;17.27;;
18228;SDS011;9239;50.932;3.142;2023-07-20T13:37:36;17.02;;;15.38;;
18228;SDS011;9239;50.932;3.142;2023-07-20T13:40:04;18.13;;;16.63;;
18228;SDS011;9239;50.932;3.142;2023-07-20T13:42:35;17.92;;;16.42;;
18228;SDS011;9239;50.932;3.142;2023-07-20T13:45:02;19.35;;;17.75;;
18228;SDS011;9239;50.932;3.142;2023-07-20T13:47:30;21.67;;;19.77;;
18228;SDS011;9239;50.932;3.142;2023-07-20T13:49:56;22.30;;;20.40;;
18228;SDS011;9239;50.932;3.142;2023-07-20T13:52:23;23.38;;;21.30;;
18228;SDS011;9239;50.932;3.142;2023-07-20T13:54:50;24.38;;;22.27;;
18228;SDS011;9239;50.932;3.142;2023-07-20T13:57:17;24.63;;;22.23;;
18228;SDS011;9239;50.932;3.142;2023-07-20T13:59:45;23.85;;;21.85;;
18228;SDS011;9239;50.932;3.142;2023-07-20T14:02:13;21.83;;;19.92;;
18228;SDS011;9239;50.932;3.142;2023-07-20T14:04:40;23.85;;;21.65;;
18228;SDS011;9239;50.932;3.142;2023-07-20T14:07:07;23.73;;;21.63;;
18228;SDS011;9239;50.932;3.142;2023-07-20T14:09:34;24.58;;;22.27;;
18228;SDS011;9239;50.932;3.142;2023-07-20T14:12:01;24.35;;;22.15;;
18228;SDS011;9239;50.932;3.142;2023-07-20T14:14:29;24.48;;;22.27;;
18228;SDS011;9239;50.932;3.142;2023-07-20T14:16:57;23.63;;;21.48;;
18228;SDS011;9239;50.932;3.142;2023-07-20T14:19:24;22.15;;;20.20;;
18228;SDS011;9239;50.932;3.142;2023-07-20T14:21:50;24.25;;;22.23;;
18228;SDS011;9239;50.932;3.142;2023-07-20T14:24:17;24.33;;;22.13;;
18228;SDS011;9239;50.932;3.142;2023-07-20T14:26:44;21.75;;;19.83;;
18228;SDS011;9239;50.932;3.142;2023-07-20T14:29:12;23.33;;;21.38;;
18228;SDS011;9239;50.932;3.142;2023-07-20T14:31:39;24.42;;;22.35;;
18228;SDS011;9239;50.932;3.142;2023-07-20T14:34:08;23.92;;;21.45;;
18228;SDS011;9239;50.932;3.142;2023-07-20T14:36:35;22.27;;;20.38;;
18228;SDS011;9239;50.932;3.142;2023-07-20T14:39:02;20.23;;;18.48;;
18228;SDS011;9239;50.932;3.142;2023-07-20T14:41:29;16.95;;;15.55;;
18228;SDS011;9239;50.932;3.142;2023-07-20T14:43:56;16.60;;;15.35;;
18228;SDS011;9239;50.932;3.142;2023-07-20T14:46:23;14.55;;;13.35;;
18228;SDS011;9239;50.932;3.142;2023-07-20T14:48:50;16.33;;;14.93;;
18228;SDS011;9239;50.932;3.142;2023-07-20T14:51:18;12.77;;;11.73;;
18228;SDS011;9239;50.932;3.142;2023-07-20T14:53:45;11.82;;;10.93;;
18228;SDS011;9239;50.932;3.142;2023-07-20T14:56:12;11.57;;;10.57;;
18228;SDS011;9239;50.932;3.142;2023-07-20T14:58:39;14.38;;;13.07;;
18228;SDS011;9239;50.932;3.142;2023-07-20T15:01:06;12.32;;;11.27;;
18228;SDS011;9239;50.932;3.142;2023-07-20T15:03:32;12.43;;;11.43;;
18228;SDS011;9239;50.932;3.142;2023-07-20T15:06:00;10.55;;;9.68;;